createdAt,value
2023-05-06T00:00:42.864Z,12.13
2023-05-06T00:03:10.519Z,10.73
2023-05-06T00:05:37.940Z,10.93
2023-05-06T00:08:05.672Z,10.90
2023-05-06T00:10:33.374Z,12.15
2023-05-06T00:13:00.799Z,12.40
2023-05-06T00:15:30.192Z,10.77
2023-05-06T00:18:00.449Z,12.70
2023-05-06T00:20:28.529Z,14.75
2023-05-06T00:22:55.925Z,12.73
2023-05-06T00:25:23.502Z,13.65
2023-05-06T00:27:50.895Z,11.80
2023-05-06T00:30:18.266Z,12.02
2023-05-06T00:32:46.064Z,14.18
2023-05-06T00:35:13.707Z,13.43
2023-05-06T00:37:41.145Z,11.38
2023-05-06T00:40:09.691Z,10.82
2023-05-06T00:42:37.050Z,15.43
2023-05-06T00:45:05.940Z,12.73
2023-05-06T00:47:33.642Z,13.98
2023-05-06T00:50:01.073Z,11.12
2023-05-06T00:52:28.451Z,11.32
2023-05-06T00:54:56.090Z,10.30
2023-05-06T00:57:23.673Z,10.20
2023-05-06T00:59:51.060Z,10.20
2023-05-06T01:02:18.705Z,10.32
2023-05-06T01:04:46.108Z,9.75
2023-05-06T01:07:22.443Z,11.12
2023-05-06T01:09:57.395Z,11.23
2023-05-06T01:12:32.254Z,11.73
2023-05-06T01:15:06.534Z,12.13
2023-05-06T01:17:35.514Z,9.30
2023-05-06T01:20:05.084Z,11.10
2023-05-06T01:22:33.394Z,12.20
2023-05-06T01:25:01.636Z,10.88
2023-05-06T01:27:29.339Z,9.82
2023-05-06T01:29:56.819Z,10.32
2023-05-06T01:32:48.970Z,9.70
2023-05-06T01:35:38.342Z,14.40
2023-05-06T01:38:17.964Z,11.32
2023-05-06T01:40:45.679Z,11.50
2023-05-06T01:43:13.585Z,11.68
2023-05-06T01:45:42.613Z,10.93
2023-05-06T01:48:10.329Z,10.55
2023-05-06T01:50:37.804Z,8.43
2023-05-06T01:53:05.196Z,9.43
2023-05-06T01:55:32.789Z,9.27
2023-05-06T01:58:00.188Z,13.43
2023-05-06T02:00:27.548Z,12.60
2023-05-06T02:02:55.407Z,9.70
2023-05-06T02:05:23.357Z,10.15
2023-05-06T02:07:51.297Z,9.00
2023-05-06T02:10:21.704Z,9.45
2023-05-06T02:12:49.673Z,10.18
2023-05-06T02:15:17.098Z,10.98
2023-05-06T02:17:44.794Z,12.37
2023-05-06T02:20:12.263Z,13.65
2023-05-06T02:22:40.541Z,12.15
2023-05-06T02:25:08.929Z,10.63
2023-05-06T02:27:36.513Z,9.50
2023-05-06T02:30:04.057Z,10.68
2023-05-06T02:32:31.944Z,11.73
2023-05-06T02:34:59.326Z,11.23
2023-05-06T02:37:26.652Z,12.73
2023-05-06T02:39:54.269Z,9.00
2023-05-06T02:42:21.874Z,12.48
2023-05-06T02:44:49.276Z,9.73
2023-05-06T02:47:16.910Z,12.20
2023-05-06T02:49:44.959Z,10.95
2023-05-06T02:52:13.190Z,11.60
2023-05-06T02:54:40.954Z,9.57
2023-05-06T02:57:08.277Z,14.18
2023-05-06T02:59:35.927Z,9.77
2023-05-06T03:02:03.530Z,11.07
2023-05-06T03:04:31.087Z,10.55
2023-05-06T03:06:58.492Z,9.73
2023-05-06T03:09:26.245Z,12.57
2023-05-06T03:11:55.937Z,9.88
2023-05-06T03:14:23.352Z,10.15
2023-05-06T03:16:51.593Z,11.90
2023-05-06T03:19:19.306Z,12.80
2023-05-06T03:21:46.696Z,13.45
2023-05-06T03:24:15.955Z,10.02
2023-05-06T03:26:43.330Z,11.55
2023-05-06T03:29:11.858Z,12.07
2023-05-06T03:31:39.880Z,12.20
2023-05-06T03:34:07.303Z,10.98
2023-05-06T03:36:35.062Z,11.93
2023-05-06T03:39:02.725Z,9.82
2023-05-06T03:41:31.516Z,10.18
2023-05-06T03:43:59.041Z,10.07
2023-05-06T03:46:26.803Z,9.32
2023-05-06T03:48:54.289Z,9.95
2023-05-06T03:51:21.703Z,12.63
2023-05-06T03:53:49.335Z,11.35
2023-05-06T03:56:18.256Z,9.10
2023-05-06T03:58:46.183Z,12.15
2023-05-06T04:01:14.542Z,9.73
2023-05-06T04:03:42.302Z,10.82
2023-05-06T04:06:09.949Z,9.13
2023-05-06T04:08:37.329Z,11.05
2023-05-06T04:11:07.832Z,9.80
2023-05-06T04:13:36.573Z,10.00
2023-05-06T04:16:04.206Z,11.80
2023-05-06T04:18:32.898Z,10.43
2023-05-06T04:21:00.742Z,10.23
2023-05-06T04:23:28.611Z,10.18
2023-05-06T04:25:57.885Z,11.12
2023-05-06T04:28:25.697Z,10.50
2023-05-06T04:30:53.227Z,10.77
2023-05-06T04:33:22.308Z,12.93
2023-05-06T04:35:51.178Z,10.98
2023-05-06T04:38:18.735Z,12.25
2023-05-06T04:40:46.432Z,15.25
2023-05-06T04:43:14.507Z,15.85
2023-05-06T04:45:51.020Z,11.07
2023-05-06T04:48:19.265Z,15.68
2023-05-06T04:50:46.986Z,12.48
2023-05-06T04:53:14.711Z,13.18
2023-05-06T04:55:42.594Z,12.27
2023-05-06T04:58:10.291Z,9.95
2023-05-06T05:00:38.575Z,12.65
2023-05-06T05:03:06.357Z,11.25
2023-05-06T05:05:34.698Z,14.87
2023-05-06T05:08:02.209Z,19.65
2023-05-06T05:10:29.924Z,12.55
2023-05-06T05:12:57.592Z,13.18
2023-05-06T05:15:24.996Z,11.45
2023-05-06T05:17:52.805Z,10.05
2023-05-06T05:20:21.256Z,11.10
2023-05-06T05:22:48.877Z,12.27
2023-05-06T05:25:16.540Z,11.38
2023-05-06T05:27:43.996Z,14.27
2023-05-06T05:30:11.689Z,10.90
2023-05-06T05:32:39.627Z,11.52
2023-05-06T05:35:10.288Z,11.98
2023-05-06T05:37:38.109Z,12.75
2023-05-06T05:40:08.958Z,14.23
2023-05-06T05:42:36.801Z,13.10
2023-05-06T05:45:05.542Z,12.50
2023-05-06T05:47:33.364Z,13.95
2023-05-06T05:50:01.024Z,12.43
2023-05-06T05:52:28.379Z,14.15
2023-05-06T05:54:56.371Z,12.85
2023-05-06T05:57:23.823Z,13.43
2023-05-06T05:59:52.296Z,13.05
2023-05-06T06:02:20.091Z,13.45
2023-05-06T06:04:48.148Z,13.80
2023-05-06T06:07:15.530Z,14.23
2023-05-06T06:09:43.129Z,15.48
2023-05-06T06:12:10.836Z,14.13
2023-05-06T06:14:40.033Z,12.80
2023-05-06T06:17:07.817Z,14.87
2023-05-06T06:19:35.661Z,14.80
2023-05-06T06:22:03.180Z,14.68
2023-05-06T06:24:34.780Z,14.60
2023-05-06T06:27:02.456Z,17.08
2023-05-06T06:29:29.854Z,14.75
2023-05-06T06:31:58.230Z,15.05
2023-05-06T06:34:25.950Z,14.07
2023-05-06T06:36:53.312Z,14.70
2023-05-06T06:39:20.876Z,14.15
2023-05-06T06:41:48.484Z,14.90
2023-05-06T06:44:15.940Z,14.85
2023-05-06T06:46:43.286Z,15.13
2023-05-06T06:49:11.140Z,13.55
2023-05-06T06:51:38.461Z,14.18
2023-05-06T06:54:05.867Z,15.57
2023-05-06T06:56:33.597Z,14.98
2023-05-06T06:59:00.959Z,15.43
2023-05-06T07:01:28.316Z,16.55
2023-05-06T07:03:55.981Z,15.05
2023-05-06T07:06:23.342Z,15.65
2023-05-06T07:08:50.653Z,13.82
2023-05-06T07:11:18.337Z,14.60
2023-05-06T07:13:45.781Z,14.98
2023-05-06T07:16:13.142Z,15.90
2023-05-06T07:18:40.737Z,13.32
2023-05-06T07:21:08.108Z,14.05
2023-05-06T07:23:35.778Z,13.98
2023-05-06T07:26:03.529Z,14.23
2023-05-06T07:28:30.884Z,13.73
2023-05-06T07:30:58.215Z,12.95
2023-05-06T07:33:25.935Z,15.73
2023-05-06T07:35:54.427Z,14.05
2023-05-06T07:38:22.797Z,13.68
2023-05-06T07:40:51.230Z,13.60
2023-05-06T07:43:18.581Z,13.10
2023-05-06T07:45:45.973Z,12.00
2023-05-06T07:48:13.611Z,13.70
2023-05-06T07:50:40.980Z,13.15
2023-05-06T07:53:08.328Z,13.57
2023-05-06T07:55:37.643Z,12.95
2023-05-06T07:58:04.980Z,12.23
2023-05-06T08:00:32.396Z,14.70
2023-05-06T08:03:00.265Z,15.07
2023-05-06T08:05:27.760Z,16.02
2023-05-06T08:07:55.739Z,15.60
2023-05-06T08:10:23.486Z,13.93
2023-05-06T08:12:50.977Z,16.02
2023-05-06T08:15:18.402Z,14.57
2023-05-06T08:17:46.041Z,15.93
2023-05-06T08:20:13.700Z,16.62
2023-05-06T08:22:41.039Z,15.40
2023-05-06T08:25:09.296Z,16.70
2023-05-06T08:27:36.930Z,16.60
2023-05-06T08:30:04.661Z,16.90
2023-05-06T08:32:32.411Z,15.50
2023-05-06T08:35:00.724Z,15.20
2023-05-06T08:37:28.144Z,14.85
2023-05-06T08:39:56.289Z,14.45
2023-05-06T08:42:28.053Z,14.90
2023-05-06T08:44:55.814Z,16.50
2023-05-06T08:47:23.269Z,15.10
2023-05-06T08:49:50.640Z,14.38
2023-05-06T08:52:18.300Z,16.60
2023-05-06T08:54:45.672Z,13.32
2023-05-06T08:57:13.056Z,14.32
2023-05-06T08:59:41.196Z,14.50
2023-05-06T09:02:09.187Z,14.82
2023-05-06T09:04:36.520Z,14.98
2023-05-06T09:07:04.183Z,15.48
2023-05-06T09:09:31.546Z,16.35
2023-05-06T09:12:02.178Z,14.75
2023-05-06T09:14:29.954Z,14.55
2023-05-06T09:16:57.374Z,14.70
2023-05-06T09:19:25.702Z,13.68
2023-05-06T09:21:53.366Z,13.77
2023-05-06T09:24:20.866Z,13.35
2023-05-06T09:26:48.214Z,13.38
2023-05-06T09:29:16.175Z,14.02
2023-05-06T09:31:44.517Z,14.98
2023-05-06T09:34:12.141Z,13.00
2023-05-06T09:36:39.847Z,13.57
2023-05-06T09:39:07.405Z,14.45
2023-05-06T09:41:34.788Z,13.77
2023-05-06T09:44:02.396Z,13.38
2023-05-06T09:46:29.874Z,13.93
2023-05-06T09:48:58.063Z,13.85
2023-05-06T09:51:26.367Z,15.13
2023-05-06T09:53:53.707Z,14.20
2023-05-06T09:56:21.477Z,13.65
2023-05-06T09:58:49.083Z,13.60
2023-05-06T10:01:25.234Z,13.60
2023-05-06T10:04:01.350Z,13.68
2023-05-06T10:06:28.855Z,12.55
2023-05-06T10:08:56.236Z,11.80
2023-05-06T10:11:23.825Z,11.90
2023-05-06T10:13:51.279Z,12.40
2023-05-06T10:16:18.914Z,11.43
2023-05-06T10:18:46.723Z,11.65
2023-05-06T10:21:19.686Z,12.95
2023-05-06T10:23:56.429Z,11.82
2023-05-06T10:26:23.867Z,12.98
2023-05-06T10:28:53.097Z,13.43
2023-05-06T10:31:20.475Z,13.15
2023-05-06T10:33:49.534Z,13.32
2023-05-06T10:36:22.659Z,13.15
2023-05-06T10:38:56.887Z,12.13
2023-05-06T10:41:26.107Z,12.20
2023-05-06T10:44:00.099Z,12.48
2023-05-06T10:46:30.835Z,12.45
2023-05-06T10:49:01.127Z,12.37
2023-05-06T10:51:28.706Z,13.88
2023-05-06T10:54:02.794Z,13.38
2023-05-06T10:56:34.530Z,13.02
2023-05-06T10:59:08.052Z,12.98
2023-05-06T11:01:39.518Z,12.85
2023-05-06T11:04:06.978Z,12.15
2023-05-06T11:06:36.932Z,13.02
2023-05-06T11:09:05.172Z,13.43
2023-05-06T11:12:04.210Z,11.27
2023-05-06T11:14:35.781Z,12.43
2023-05-06T11:17:07.205Z,13.27
2023-05-06T11:19:38.350Z,13.52
2023-05-06T11:22:06.817Z,11.95
2023-05-06T11:24:42.159Z,12.88
2023-05-06T11:27:10.467Z,13.70
2023-05-06T11:29:37.887Z,13.32
2023-05-06T11:32:20.887Z,12.63
2023-05-06T11:34:48.538Z,13.25
2023-05-06T11:37:15.887Z,13.35
2023-05-06T11:39:48.199Z,12.85
2023-05-06T11:42:15.848Z,12.88
2023-05-06T11:44:43.219Z,13.13
2023-05-06T11:47:10.613Z,13.25
2023-05-06T11:49:42.080Z,13.05
2023-05-06T11:52:10.008Z,13.98
2023-05-06T11:54:41.625Z,12.95
2023-05-06T11:57:09.571Z,13.45
2023-05-06T11:59:37.936Z,12.93
2023-05-06T12:02:09.763Z,12.77
2023-05-06T12:04:42.262Z,12.30
2023-05-06T12:07:11.002Z,13.52
2023-05-06T12:09:40.694Z,12.50
2023-05-06T12:12:08.182Z,13.93
2023-05-06T12:14:36.576Z,13.52
2023-05-06T12:17:04.455Z,14.98
2023-05-06T12:19:32.179Z,13.23
2023-05-06T12:22:16.341Z,13.40
2023-05-06T12:24:44.524Z,11.73
2023-05-06T12:27:12.023Z,12.75
2023-05-06T12:29:39.616Z,12.50
2023-05-06T12:32:09.125Z,12.23
2023-05-06T12:34:38.264Z,11.77
2023-05-06T12:37:06.452Z,14.60
2023-05-06T12:39:35.670Z,12.93
2023-05-06T12:42:03.263Z,13.30
2023-05-06T12:44:40.055Z,12.73
2023-05-06T12:47:19.390Z,12.02
2023-05-06T12:49:52.563Z,11.85
2023-05-06T12:52:23.225Z,11.73
2023-05-06T12:54:51.805Z,11.95
2023-05-06T12:57:19.248Z,12.57
2023-05-06T12:59:47.055Z,11.65
2023-05-06T13:02:14.551Z,12.32
2023-05-06T13:04:41.987Z,11.50
2023-05-06T13:07:09.560Z,12.05
2023-05-06T13:09:36.938Z,12.20
2023-05-06T13:12:05.042Z,12.60
2023-05-06T13:14:32.637Z,12.52
2023-05-06T13:17:01.248Z,12.88
2023-05-06T13:19:32.776Z,12.40
2023-05-06T13:22:01.404Z,12.07
2023-05-06T13:24:29.617Z,13.15
2023-05-06T13:26:57.281Z,14.25
2023-05-06T13:29:25.444Z,16.25
2023-05-06T13:31:52.796Z,13.77
2023-05-06T13:34:20.164Z,13.77
2023-05-06T13:36:49.311Z,14.05
2023-05-06T13:39:16.698Z,14.48
2023-05-06T13:41:46.600Z,16.45
2023-05-06T13:44:14.202Z,16.23
2023-05-06T13:46:43.016Z,15.32
2023-05-06T13:49:12.337Z,13.40
2023-05-06T13:51:39.933Z,15.63
2023-05-06T13:54:07.271Z,15.15
2023-05-06T13:56:34.629Z,16.37
2023-05-06T13:59:02.217Z,14.48
2023-05-06T14:01:29.648Z,13.23
2023-05-06T14:03:57.268Z,14.20
2023-05-06T14:06:24.595Z,13.35
2023-05-06T14:08:52.027Z,12.85
2023-05-06T14:11:19.721Z,12.73
2023-05-06T14:13:47.032Z,13.43
2023-05-06T14:16:14.869Z,13.50
2023-05-06T14:18:42.535Z,13.43
2023-05-06T14:21:09.862Z,13.60
2023-05-06T14:23:37.974Z,13.38
2023-05-06T14:26:05.580Z,13.90
2023-05-06T14:28:32.986Z,12.70
2023-05-06T14:31:00.394Z,13.13
2023-05-06T14:33:28.000Z,12.70
2023-05-06T14:35:55.398Z,12.45
2023-05-06T14:38:22.743Z,11.82
2023-05-06T14:40:50.659Z,11.88
2023-05-06T14:43:18.021Z,12.32
2023-05-06T14:45:45.378Z,11.48
2023-05-06T14:48:13.098Z,12.13
2023-05-06T14:50:41.181Z,11.70
2023-05-06T14:53:08.495Z,12.68
2023-05-06T14:55:36.083Z,12.32
2023-05-06T14:58:03.699Z,11.98
2023-05-06T15:00:31.154Z,13.90
2023-05-06T15:02:59.352Z,15.25
2023-05-06T15:05:27.062Z,11.85
2023-05-06T15:07:54.408Z,11.80
2023-05-06T15:10:22.127Z,31.30
2023-05-06T15:12:49.623Z,30.27
2023-05-06T15:15:16.959Z,16.55
2023-05-06T15:17:44.606Z,12.98
2023-05-06T15:20:12.955Z,11.85
2023-05-06T15:22:40.568Z,12.77
2023-05-06T15:25:12.353Z,11.32
2023-05-06T15:27:44.102Z,12.88
2023-05-06T15:30:11.859Z,12.85
2023-05-06T15:32:39.394Z,10.93
2023-05-06T15:35:06.952Z,12.32
2023-05-06T15:37:34.589Z,10.82
2023-05-06T15:40:02.335Z,10.07
2023-05-06T15:42:29.778Z,10.85
2023-05-06T15:44:57.794Z,11.55
2023-05-06T15:47:25.180Z,12.13
2023-05-06T15:50:10.929Z,12.90
2023-05-06T15:52:42.387Z,14.25
2023-05-06T15:55:09.967Z,13.25
2023-05-06T15:57:37.403Z,12.23
2023-05-06T16:00:05.587Z,11.43
2023-05-06T16:02:33.887Z,13.50
2023-05-06T16:05:01.754Z,12.80
2023-05-06T16:07:29.851Z,12.00
2023-05-06T16:09:57.190Z,11.48
2023-05-06T16:12:24.816Z,11.80
2023-05-06T16:14:52.229Z,12.10
2023-05-06T16:17:19.585Z,12.50
2023-05-06T16:19:47.195Z,11.50
2023-05-06T16:22:14.575Z,10.70
2023-05-06T16:24:41.922Z,11.38
2023-05-06T16:27:09.690Z,12.37
2023-05-06T16:29:37.121Z,11.98
2023-05-06T16:32:04.671Z,12.88
2023-05-06T16:34:32.313Z,12.70
2023-05-06T16:37:00.632Z,12.37
2023-05-06T16:39:28.102Z,11.25
2023-05-06T16:41:55.668Z,12.27
2023-05-06T16:44:23.014Z,11.75
2023-05-06T16:46:50.397Z,10.95
2023-05-06T16:49:21.027Z,12.13
2023-05-06T16:51:48.359Z,12.07
2023-05-06T16:54:15.732Z,11.45
2023-05-06T16:56:51.454Z,10.48
2023-05-06T16:59:21.930Z,11.57
2023-05-06T17:01:50.371Z,14.48
2023-05-06T17:04:17.774Z,13.65
2023-05-06T17:06:45.169Z,13.95
2023-05-06T17:09:13.033Z,10.32
2023-05-06T17:11:40.412Z,13.82
2023-05-06T17:14:07.858Z,18.55
2023-05-06T17:16:35.751Z,14.38
2023-05-06T17:19:03.178Z,11.38
2023-05-06T17:21:31.875Z,12.55
2023-05-06T17:23:59.549Z,13.98
2023-05-06T17:26:26.956Z,10.65
2023-05-06T17:28:54.326Z,10.68
2023-05-06T17:31:21.981Z,10.70
2023-05-06T17:33:49.410Z,12.07
2023-05-06T17:36:21.114Z,11.80
2023-05-06T17:38:48.866Z,14.52
2023-05-06T17:41:16.290Z,10.48
2023-05-06T17:43:47.322Z,11.27
2023-05-06T17:46:16.006Z,12.20
2023-05-06T17:48:44.779Z,15.00
2023-05-06T17:51:12.134Z,12.73
2023-05-06T17:53:39.942Z,12.80
2023-05-06T17:56:07.325Z,11.00
2023-05-06T17:58:34.680Z,9.98
2023-05-06T18:01:02.817Z,10.15
2023-05-06T18:03:30.575Z,11.93
2023-05-06T18:05:58.382Z,9.43
2023-05-06T18:08:25.711Z,10.05
2023-05-06T18:10:53.364Z,9.50
2023-05-06T18:13:20.837Z,12.57
2023-05-06T18:15:48.298Z,9.25
2023-05-06T18:18:16.096Z,9.52
2023-05-06T18:20:43.451Z,9.77
2023-05-06T18:23:10.778Z,10.88
2023-05-06T18:25:38.605Z,10.75
2023-05-06T18:28:06.028Z,11.15
2023-05-06T18:30:33.402Z,12.93
2023-05-06T18:33:01.119Z,10.10
2023-05-06T18:35:28.548Z,12.82
2023-05-06T18:37:55.893Z,9.75
2023-05-06T18:40:23.481Z,10.73
2023-05-06T18:42:50.880Z,13.20
2023-05-06T18:45:18.234Z,11.52
2023-05-06T18:47:45.908Z,12.13
2023-05-06T18:50:13.296Z,10.52
2023-05-06T18:52:40.635Z,9.95
2023-05-06T18:55:08.961Z,12.55
2023-05-06T18:57:36.592Z,11.00
2023-05-06T19:00:07.168Z,12.82
2023-05-06T19:02:34.815Z,11.65
2023-05-06T19:05:02.230Z,10.07
2023-05-06T19:07:29.544Z,10.98
2023-05-06T19:09:57.152Z,10.55
2023-05-06T19:12:24.513Z,13.15
2023-05-06T19:14:51.907Z,10.48
2023-05-06T19:17:19.573Z,10.65
2023-05-06T19:19:48.634Z,10.50
2023-05-06T19:22:16.233Z,10.93
2023-05-06T19:24:44.255Z,10.95
2023-05-06T19:27:11.721Z,9.13
2023-05-06T19:29:39.060Z,9.45
2023-05-06T19:32:06.651Z,10.15
2023-05-06T19:34:33.997Z,10.07
2023-05-06T19:37:01.395Z,11.85
2023-05-06T19:39:29.010Z,11.77
2023-05-06T19:41:57.047Z,12.25
2023-05-06T19:44:24.361Z,10.70
2023-05-06T19:46:55.159Z,9.98
2023-05-06T19:49:22.694Z,11.07
2023-05-06T19:51:50.103Z,11.43
2023-05-06T19:54:19.353Z,13.30
2023-05-06T19:56:46.775Z,13.98
2023-05-06T19:59:14.109Z,16.25
2023-05-06T20:01:41.797Z,15.13
2023-05-06T20:04:09.961Z,14.52
2023-05-06T20:06:37.390Z,13.20
2023-05-06T20:09:04.832Z,14.45
2023-05-06T20:11:32.429Z,13.85
2023-05-06T20:13:59.776Z,13.30
2023-05-06T20:16:27.159Z,15.02
2023-05-06T20:18:54.858Z,12.68
2023-05-06T20:21:22.247Z,12.15
2023-05-06T20:23:49.627Z,11.57
2023-05-06T20:26:17.225Z,11.25
2023-05-06T20:28:44.570Z,9.32
2023-05-06T20:31:11.979Z,10.43
2023-05-06T20:33:39.660Z,11.48
2023-05-06T20:36:07.013Z,10.95
2023-05-06T20:38:34.773Z,10.73
2023-05-06T20:41:03.019Z,11.38
2023-05-06T20:43:30.639Z,12.35
2023-05-06T20:45:58.044Z,13.50
2023-05-06T20:48:27.755Z,11.20
2023-05-06T20:50:57.046Z,11.52
2023-05-06T20:53:24.421Z,11.95
2023-05-06T20:55:52.079Z,10.35
2023-05-06T20:58:19.511Z,10.77
2023-05-06T21:00:46.876Z,8.95
2023-05-06T21:03:14.670Z,11.02
2023-05-06T21:05:42.164Z,10.68
2023-05-06T21:08:09.565Z,10.00
2023-05-06T21:10:37.217Z,11.23
2023-05-06T21:13:04.791Z,10.40
2023-05-06T21:15:33.929Z,11.18
2023-05-06T21:18:01.849Z,7.90
2023-05-06T21:20:29.243Z,9.80
2023-05-06T21:22:56.844Z,10.80
2023-05-06T21:25:24.547Z,10.35
2023-05-06T21:27:51.912Z,9.88
2023-05-06T21:30:19.301Z,11.85
2023-05-06T21:32:46.960Z,9.48
2023-05-06T21:35:15.767Z,9.90
2023-05-06T21:37:43.144Z,8.82
2023-05-06T21:40:11.065Z,7.75
2023-05-06T21:42:38.434Z,10.38
2023-05-06T21:45:06.488Z,8.40
2023-05-06T21:47:34.192Z,9.15
2023-05-06T21:50:01.561Z,11.25
2023-05-06T21:52:29.076Z,8.40
2023-05-06T21:54:56.750Z,7.50
2023-05-06T21:57:24.124Z,8.48
2023-05-06T21:59:52.080Z,10.27
2023-05-06T22:02:19.781Z,7.95
2023-05-06T22:04:47.516Z,9.15
2023-05-06T22:07:14.887Z,7.62
2023-05-06T22:09:42.638Z,9.60
2023-05-06T22:12:11.717Z,7.55
2023-05-06T22:14:41.606Z,8.80
2023-05-06T22:17:10.364Z,8.50
2023-05-06T22:19:38.534Z,8.38
2023-05-06T22:22:06.589Z,7.70
2023-05-06T22:24:34.013Z,7.90
2023-05-06T22:27:01.767Z,8.45
2023-05-06T22:29:29.090Z,8.30
2023-05-06T22:31:56.553Z,10.85
2023-05-06T22:34:24.256Z,10.75
2023-05-06T22:36:51.612Z,9.73
2023-05-06T22:39:18.950Z,7.70
2023-05-06T22:41:48.395Z,7.55
2023-05-06T22:44:15.789Z,6.30
2023-05-06T22:46:43.219Z,8.48
2023-05-06T22:49:10.927Z,6.53
2023-05-06T22:51:38.299Z,6.10
2023-05-06T22:54:05.719Z,7.37
2023-05-06T22:56:33.309Z,9.02
2023-05-06T22:59:00.682Z,8.73
2023-05-06T23:01:32.107Z,6.50
2023-05-06T23:04:00.126Z,9.85
2023-05-06T23:06:27.694Z,7.87
2023-05-06T23:08:55.035Z,6.68
2023-05-06T23:11:22.687Z,5.47
2023-05-06T23:13:50.045Z,7.03
2023-05-06T23:16:17.525Z,5.72
2023-05-06T23:18:45.767Z,7.60
2023-05-06T23:21:13.167Z,8.85
2023-05-06T23:23:40.534Z,8.85
2023-05-06T23:26:08.164Z,8.23
2023-05-06T23:28:35.684Z,7.05
2023-05-06T23:31:03.104Z,6.37
2023-05-06T23:33:30.774Z,5.72
2023-05-06T23:36:01.063Z,5.85
2023-05-06T23:38:28.647Z,6.60
2023-05-06T23:40:56.274Z,6.37
2023-05-06T23:43:23.671Z,6.43
2023-05-06T23:45:51.121Z,9.00
2023-05-06T23:48:18.756Z,8.48
2023-05-06T23:50:46.211Z,10.68
2023-05-06T23:53:13.625Z,11.55
2023-05-06T23:55:42.723Z,7.57
2023-05-06T23:58:10.309Z,7.37
